Time;durP1;ratioP1;P1;durP2;ratioP2;P2;SDS_P1;SDS_P2;PMS_P1;PMS_P2;Temp;Humidity;BMP_temperature;BMP_pressure;BME280_temperature;BME280_humidity;BME280_pressure;Samples;Min_cycle;Max_cycle;Signal;HPM_P1;HPM_P2
2023/11/06 00:00:48;;;;;;;2.47;0.80;;;10.00;99.90;;;;;;4363420;28;658453;-77
2023/11/06 00:03:35;;;;;;;2.53;0.83;;;10.10;99.90;;;;;;4366679;28;659629;-76
2023/11/06 00:06:22;;;;;;;1.13;0.70;;;10.10;99.90;;;;;;4349637;28;658750;-77
2023/11/06 00:09:10;;;;;;;0.37;0.37;;;10.10;99.90;;;;;;4366512;28;659464;-77
2023/11/06 00:11:58;;;;;;;1.23;0.70;;;10.20;99.90;;;;;;4350901;28;659510;-76
2023/11/06 00:14:47;;;;;;;1.27;0.47;;;10.30;99.90;;;;;;4367052;28;659368;-76
2023/11/06 00:17:34;;;;;;;0.90;0.50;;;10.40;99.90;;;;;;4353141;28;659110;-79
2023/11/06 00:20:22;;;;;;;1.07;0.57;;;10.30;99.90;;;;;;4375208;28;658713;-78
2023/11/06 00:23:09;;;;;;;1.40;0.80;;;10.30;99.90;;;;;;4344231;28;659270;-78
2023/11/06 00:25:56;;;;;;;1.40;0.60;;;10.10;99.90;;;;;;4380127;28;658195;-79
2023/11/06 00:28:44;;;;;;;2.33;0.68;;;10.10;99.90;;;;;;4345885;28;658538;-77
2023/11/06 00:31:39;;;;;;;0.87;0.70;;;10.20;99.90;;;;;;4376750;28;659047;-77
2023/11/06 00:34:27;;;;;;;0.87;0.53;;;10.20;99.90;;;;;;4341705;28;658614;-76
2023/11/06 00:37:14;;;;;;;2.07;0.67;;;10.10;99.90;;;;;;4333730;28;659635;-79
2023/11/06 00:40:03;;;;;;;1.17;0.60;;;10.20;99.90;;;;;;4366374;28;658424;-78
2023/11/06 00:42:51;;;;;;;0.73;0.60;;;10.20;99.90;;;;;;4340406;28;659624;-79
2023/11/06 00:45:38;;;;;;;0.30;0.30;;;10.20;99.90;;;;;;4348577;28;659176;-76
2023/11/06 00:48:27;;;;;;;0.70;0.40;;;10.30;99.90;;;;;;4376330;28;659388;-77
2023/11/06 00:51:14;;;;;;;3.17;0.57;;;10.40;99.90;;;;;;4343083;28;659398;-77
2023/11/06 00:54:02;;;;;;;1.40;0.67;;;10.40;99.90;;;;;;4366132;28;658354;-78
2023/11/06 00:56:49;;;;;;;0.50;0.43;;;10.50;99.90;;;;;;4347946;28;659549;-78
2023/11/06 00:59:38;;;;;;;1.30;0.70;;;10.50;99.90;;;;;;4367764;28;658831;-78
2023/11/06 01:02:25;;;;;;;0.53;0.50;;;10.50;99.90;;;;;;4343793;28;659165;-78
2023/11/06 01:05:14;;;;;;;2.20;0.60;;;10.50;99.90;;;;;;4351709;28;658444;-78
2023/11/06 01:08:05;;;;;;;0.80;0.60;;;10.50;99.90;;;;;;4362469;28;659635;-78
2023/11/06 01:10:53;;;;;;;1.20;0.50;;;10.50;99.90;;;;;;4346822;28;659157;-76
2023/11/06 01:13:40;;;;;;;0.80;0.50;;;10.50;99.90;;;;;;4366637;28;658812;-76
2023/11/06 01:16:28;;;;;;;0.63;0.53;;;10.60;99.90;;;;;;4360550;28;658980;-76
2023/11/06 01:19:16;;;;;;;0.77;0.55;;;10.60;99.90;;;;;;4374551;28;659387;-78
2023/11/06 01:22:05;;;;;;;0.77;0.40;;;10.60;99.90;;;;;;4341674;28;659868;-76
2023/11/06 01:24:53;;;;;;;2.20;0.75;;;10.60;99.90;;;;;;4356748;28;659076;-77
2023/11/06 01:27:40;;;;;;;1.07;0.60;;;10.50;99.90;;;;;;4376499;28;659109;-79
2023/11/06 01:30:28;;;;;;;0.50;0.50;;;10.50;99.90;;;;;;4346587;28;659038;-77
2023/11/06 01:33:16;;;;;;;1.30;0.60;;;10.50;99.90;;;;;;4368016;28;660288;-78
2023/11/06 01:36:05;;;;;;;0.80;0.50;;;10.50;99.90;;;;;;4343588;28;658682;-77
2023/11/06 01:38:54;;;;;;;0.93;0.70;;;10.50;99.90;;;;;;4353917;28;658844;-77
2023/11/06 01:41:41;;;;;;;1.90;0.43;;;10.50;99.90;;;;;;4367363;28;658698;-77
2023/11/06 01:44:28;;;;;;;0.93;0.53;;;10.50;99.90;;;;;;4353014;28;658652;-77
2023/11/06 01:47:15;;;;;;;0.57;0.30;;;10.40;99.90;;;;;;4360929;28;659076;-79
2023/11/06 01:50:04;;;;;;;1.97;0.50;;;10.40;99.90;;;;;;4350284;28;658509;-77
2023/11/06 01:52:51;;;;;;;0.40;0.40;;;10.40;99.90;;;;;;4377259;28;658841;-77
2023/11/06 01:55:41;;;;;;;1.07;0.30;;;10.50;99.90;;;;;;4345938;28;658560;-77
2023/11/06 01:58:29;;;;;;;1.60;0.50;;;10.50;99.90;;;;;;4357696;28;658983;-78
2023/11/06 02:01:16;;;;;;;1.00;0.60;;;10.40;99.90;;;;;;4378304;28;659180;-77
2023/11/06 02:04:06;;;;;;;2.00;0.40;;;10.40;99.90;;;;;;4347935;28;658792;-77
2023/11/06 02:06:53;;;;;;;0.73;0.20;;;10.40;99.90;;;;;;4345422;28;658779;-77
2023/11/06 02:09:40;;;;;;;0.50;0.40;;;10.40;99.90;;;;;;4369902;28;659771;-77
2023/11/06 02:12:31;;;;;;;4.37;0.40;;;10.30;99.90;;;;;;4347297;28;659021;-76
2023/11/06 02:15:20;;;;;;;1.10;0.20;;;10.30;99.90;;;;;;4343510;28;659509;-75
2023/11/06 02:18:08;;;;;;;0.30;0.30;;;10.40;99.90;;;;;;4368997;28;659158;-75
2023/11/06 02:20:57;;;;;;;0.30;0.10;;;10.40;99.90;;;;;;4378675;28;659267;-77
2023/11/06 02:23:45;;;;;;;4.37;0.40;;;10.40;99.90;;;;;;4355670;28;659848;-76
2023/11/06 02:26:33;;;;;;;2.93;0.40;;;10.30;99.90;;;;;;4348824;28;658904;-76
2023/11/06 02:29:20;;;;;;;0.80;0.40;;;10.30;99.90;;;;;;4364061;28;659253;-76
2023/11/06 02:32:08;;;;;;;3.20;0.40;;;10.30;99.90;;;;;;4358738;28;658251;-76
2023/11/06 02:34:55;;;;;;;0.80;0.50;;;10.30;99.90;;;;;;4371217;28;659325;-75
2023/11/06 02:37:42;;;;;;;0.60;0.40;;;10.30;99.90;;;;;;4354283;28;658660;-74
2023/11/06 02:40:31;;;;;;;3.40;0.50;;;10.40;99.90;;;;;;4366772;28;659076;-75
2023/11/06 02:43:18;;;;;;;2.43;0.63;;;10.30;99.90;;;;;;4340961;28;658666;-77
2023/11/06 02:46:06;;;;;;;1.33;0.50;;;10.20;99.90;;;;;;4364396;28;659018;-76
2023/11/06 02:48:53;;;;;;;1.23;0.70;;;10.10;99.90;;;;;;4353138;28;658667;-76
2023/11/06 02:51:40;;;;;;;0.83;0.60;;;10.20;99.90;;;;;;4365152;28;659483;-77
2023/11/06 02:54:28;;;;;;;2.37;0.50;;;10.20;99.90;;;;;;4341556;28;658975;-76
2023/11/06 02:57:16;;;;;;;0.93;0.40;;;10.20;99.90;;;;;;4362093;28;659360;-76
2023/11/06 03:00:06;;;;;;;2.93;0.60;;;10.20;99.90;;;;;;4342480;28;658735;-74
2023/11/06 03:02:54;;;;;;;0.82;0.40;;;10.20;99.90;;;;;;4353898;28;658721;-74
2023/11/06 03:05:41;;;;;;;3.73;0.93;;;10.20;99.90;;;;;;4377932;28;658823;-75
2023/11/06 03:08:28;;;;;;;0.70;0.60;;;10.10;99.90;;;;;;4350653;28;659069;-75
2023/11/06 03:11:16;;;;;;;0.30;0.30;;;10.10;99.90;;;;;;4364383;28;658866;-75
2023/11/06 03:14:05;;;;;;;0.30;0.30;;;10.10;99.90;;;;;;4348082;28;659138;-76
2023/11/06 03:16:53;;;;;;;0.87;0.40;;;10.00;99.90;;;;;;4345974;28;658404;-76
2023/11/06 03:19:40;;;;;;;0.60;0.40;;;10.10;99.90;;;;;;4371655;28;659061;-78
2023/11/06 03:22:27;;;;;;;0.50;0.30;;;10.10;99.90;;;;;;4363953;28;658746;-77
2023/11/06 03:25:15;;;;;;;3.43;0.90;;;10.10;99.90;;;;;;4370187;28;659262;-76
2023/11/06 03:28:02;;;;;;;2.97;0.43;;;10.10;99.90;;;;;;4360236;28;658539;-76
2023/11/06 03:30:51;;;;;;;0.63;0.50;;;10.00;99.90;;;;;;4360784;28;660006;-77
2023/11/06 03:33:38;;;;;;;0.90;0.60;;;10.00;99.90;;;;;;4348429;28;659022;-75
2023/11/06 03:36:26;;;;;;;0.67;0.40;;;10.00;99.90;;;;;;4360745;28;658957;-76
2023/11/06 03:39:13;;;;;;;0.97;0.43;;;9.90;99.90;;;;;;4353740;28;658990;-75
2023/11/06 03:42:00;;;;;;;0.87;0.60;;;9.90;99.90;;;;;;4375917;28;658233;-76
2023/11/06 03:44:47;;;;;;;0.43;0.37;;;9.90;99.90;;;;;;4352467;28;658236;-75
2023/11/06 03:47:37;;;;;;;1.90;0.67;;;9.90;99.90;;;;;;4365077;28;658047;-76
2023/11/06 03:50:24;;;;;;;0.73;0.47;;;9.80;99.90;;;;;;4352026;28;658546;-75
2023/11/06 03:53:12;;;;;;;0.47;0.47;;;9.80;99.90;;;;;;4360585;28;657730;-74
2023/11/06 03:56:00;;;;;;;2.37;0.60;;;9.80;99.90;;;;;;4350031;28;658763;-75
2023/11/06 03:58:48;;;;;;;0.60;0.40;;;9.80;99.90;;;;;;4372934;28;657496;-75
2023/11/06 04:01:36;;;;;;;0.83;0.60;;;9.80;99.90;;;;;;4380406;28;657471;-75
2023/11/06 04:04:24;;;;;;;0.73;0.50;;;9.70;99.90;;;;;;4341907;28;657329;-75
2023/11/06 04:07:12;;;;;;;0.67;0.40;;;9.70;99.90;;;;;;4370924;28;658040;-76
2023/11/06 04:09:59;;;;;;;0.83;0.50;;;9.70;99.90;;;;;;4345538;28;657759;-78
2023/11/06 04:12:46;;;;;;;1.40;0.70;;;9.70;99.90;;;;;;4370586;28;657631;-76
2023/11/06 04:15:34;;;;;;;0.60;0.43;;;9.70;99.90;;;;;;4349233;28;658004;-76
2023/11/06 04:18:21;;;;;;;2.63;0.87;;;9.70;99.90;;;;;;4381455;28;657506;-79
2023/11/06 04:21:10;;;;;;;3.17;0.80;;;9.70;99.90;;;;;;4351221;28;657219;-76
2023/11/06 04:23:57;;;;;;;0.93;0.60;;;9.60;99.90;;;;;;4366440;28;658023;-76
2023/11/06 04:26:45;;;;;;;0.93;0.70;;;9.60;99.90;;;;;;4373629;28;658263;-76
2023/11/06 04:29:33;;;;;;;0.47;0.33;;;9.60;99.90;;;;;;4373667;28;657560;-76
2023/11/06 04:32:20;;;;;;;3.63;0.57;;;9.60;99.90;;;;;;4379796;28;657649;-77
2023/11/06 04:35:08;;;;;;;0.63;0.47;;;9.60;99.90;;;;;;4370488;28;658280;-75
2023/11/06 04:37:58;;;;;;;0.50;0.40;;;9.40;99.90;;;;;;4378646;28;657476;-78
2023/11/06 04:40:45;;;;;;;4.43;0.63;;;9.40;99.90;;;;;;4357138;28;657794;-74
2023/11/06 04:43:33;;;;;;;1.37;0.70;;;9.40;99.90;;;;;;4361663;28;658012;-74
2023/11/06 04:46:20;;;;;;;1.00;0.80;;;9.30;99.90;;;;;;4380277;28;657599;-74
2023/11/06 04:49:07;;;;;;;3.90;0.80;;;9.20;99.90;;;;;;4356819;28;657467;-74
2023/11/06 04:51:55;;;;;;;2.73;0.73;;;9.10;99.90;;;;;;4366881;28;658915;-75
2023/11/06 04:54:43;;;;;;;1.17;0.63;;;9.00;99.90;;;;;;4375049;28;657193;-75
2023/11/06 04:57:31;;;;;;;1.00;0.80;;;9.00;99.90;;;;;;4360899;28;658797;-76
2023/11/06 05:00:18;;;;;;;0.40;0.30;;;8.80;99.90;;;;;;4359574;28;657514;-74
2023/11/06 05:03:05;;;;;;;1.67;0.90;;;8.90;99.90;;;;;;4366724;28;658173;-75
2023/11/06 05:05:53;;;;;;;1.63;0.60;;;8.80;99.90;;;;;;4352408;28;657892;-74
2023/11/06 05:08:40;;;;;;;1.97;0.80;;;8.70;99.90;;;;;;4373594;28;658276;-75
2023/11/06 05:11:29;;;;;;;3.07;1.00;;;8.60;99.90;;;;;;4362976;28;658915;-74
2023/11/06 05:14:16;;;;;;;0.53;0.30;;;8.60;99.90;;;;;;4371210;28;658390;-75
2023/11/06 05:17:05;;;;;;;1.70;0.80;;;8.60;99.90;;;;;;4348469;28;657539;-74
2023/11/06 05:19:52;;;;;;;1.40;0.70;;;8.60;99.90;;;;;;4363291;28;657923;-75
2023/11/06 05:22:40;;;;;;;1.97;0.60;;;8.50;99.90;;;;;;4353724;28;657887;-75
2023/11/06 05:25:27;;;;;;;2.67;0.80;;;8.60;99.90;;;;;;4361952;28;657560;-74
2023/11/06 05:28:16;;;;;;;0.90;0.70;;;8.60;99.90;;;;;;4363523;28;658785;-74
2023/11/06 05:31:04;;;;;;;1.03;0.63;;;8.50;99.90;;;;;;4345039;28;657498;-74
2023/11/06 05:33:51;;;;;;;4.17;1.23;;;8.60;99.90;;;;;;4364336;28;657222;-75
2023/11/06 05:36:40;;;;;;;2.47;0.77;;;8.50;99.90;;;;;;4342444;28;657510;-75
2023/11/06 05:39:28;;;;;;;1.90;0.73;;;8.40;99.90;;;;;;4354369;28;658007;-74
2023/11/06 05:42:15;;;;;;;0.43;0.30;;;8.40;99.90;;;;;;4370378;28;658292;-75
2023/11/06 05:45:05;;;;;;;2.67;0.82;;;8.50;99.90;;;;;;4360396;28;657512;-75
2023/11/06 05:47:52;;;;;;;4.20;0.40;;;8.50;99.90;;;;;;4366575;28;658104;-75
2023/11/06 05:50:40;;;;;;;1.38;0.80;;;8.50;99.90;;;;;;4366599;28;657617;-75
2023/11/06 05:53:27;;;;;;;8.63;0.90;;;8.40;99.90;;;;;;4363239;28;657444;-75
2023/11/06 05:56:15;;;;;;;3.03;1.03;;;8.30;99.90;;;;;;4356634;28;658791;-75
2023/11/06 05:59:03;;;;;;;3.53;0.80;;;8.30;99.90;;;;;;4360250;28;657312;-74
2023/11/06 06:01:52;;;;;;;2.13;1.13;;;8.20;99.90;;;;;;4379278;28;657638;-75
2023/11/06 06:04:39;;;;;;;3.60;1.40;;;8.30;99.90;;;;;;4356750;28;658723;-75
2023/11/06 06:07:26;;;;;;;2.08;0.90;;;8.40;99.90;;;;;;4378655;28;657593;-75
2023/11/06 06:10:14;;;;;;;3.10;1.03;;;8.40;99.90;;;;;;4340919;28;657684;-75
2023/11/06 06:13:01;;;;;;;5.73;1.00;;;8.40;99.90;;;;;;4373139;28;657962;-74
2023/11/06 06:15:48;;;;;;;2.30;0.97;;;8.50;99.90;;;;;;4354887;28;657795;-75
2023/11/06 06:18:37;;;;;;;1.53;0.63;;;8.40;99.90;;;;;;4367894;28;657933;-75
2023/11/06 06:21:24;;;;;;;1.47;0.97;;;8.50;99.90;;;;;;4347101;28;658683;-75
2023/11/06 06:24:11;;;;;;;1.07;0.67;;;8.50;99.90;;;;;;4365961;28;656989;-75
2023/11/06 06:26:59;;;;;;;3.17;1.00;;;8.50;99.90;;;;;;4356774;28;658872;-75
2023/11/06 06:29:46;;;;;;;2.00;0.80;;;8.60;99.90;;;;;;4366491;28;658085;-76
2023/11/06 06:32:33;;;;;;;0.57;0.40;;;8.70;99.90;;;;;;4345770;28;658106;-75
2023/11/06 06:35:22;;;;;;;2.00;1.00;;;8.90;99.90;;;;;;4372187;28;658729;-75
2023/11/06 06:38:09;;;;;;;2.53;1.10;;;9.00;99.90;;;;;;4345291;28;658188;-75
2023/11/06 06:40:56;;;;;;;3.10;1.03;;;9.10;99.90;;;;;;4373156;28;659362;-75
2023/11/06 06:43:44;;;;;;;2.87;0.93;;;9.20;99.90;;;;;;4352661;28;657427;-76
2023/11/06 06:46:31;;;;;;;0.30;0.30;;;9.20;99.90;;;;;;4372367;28;658070;-75
2023/11/06 06:49:18;;;;;;;2.70;0.60;;;9.40;99.90;;;;;;4356435;28;657377;-73
2023/11/06 06:52:07;;;;;;;1.33;0.83;;;9.50;99.90;;;;;;4376611;28;657879;-75
2023/11/06 06:54:54;;;;;;;5.43;1.10;;;9.50;99.90;;;;;;4357790;28;659316;-75
2023/11/06 06:57:41;;;;;;;0.90;0.40;;;9.50;99.90;;;;;;4375124;28;657270;-74
2023/11/06 07:00:29;;;;;;;1.80;1.00;;;9.50;99.90;;;;;;4352546;28;658079;-75
2023/11/06 07:03:16;;;;;;;2.27;0.60;;;9.50;99.90;;;;;;4377643;28;657602;-75
2023/11/06 07:06:05;;;;;;;2.37;0.90;;;9.50;99.90;;;;;;4355670;28;657464;-75
2023/11/06 07:08:57;;;;;;;2.03;1.00;;;9.50;99.90;;;;;;4365982;28;657709;-75
2023/11/06 07:11:45;;;;;;;3.03;0.80;;;9.50;99.90;;;;;;4354148;28;658575;-75
2023/11/06 07:14:32;;;;;;;3.00;1.00;;;9.50;99.90;;;;;;4370256;28;657422;-76
2023/11/06 07:17:20;;;;;;;1.70;0.80;;;9.60;99.90;;;;;;4378513;28;658556;-75
2023/11/06 07:20:08;;;;;;;1.33;0.50;;;9.60;99.90;;;;;;4373563;28;657495;-75
2023/11/06 07:22:57;;;;;;;2.37;1.00;;;9.70;99.90;;;;;;4375552;28;658519;-75
2023/11/06 07:25:47;;;;;;;2.10;0.70;;;9.80;99.90;;;;;;4357252;28;657952;-75
2023/11/06 07:28:34;;;;;;;1.17;0.80;;;9.70;99.90;;;;;;4353140;28;658215;-76
2023/11/06 07:31:23;;;;;;;3.33;1.00;;;9.80;99.90;;;;;;4379526;28;657488;-77
2023/11/06 07:34:10;;;;;;;1.57;0.83;;;9.80;99.90;;;;;;4354085;28;657767;-77
2023/11/06 07:36:57;;;;;;;1.10;0.87;;;9.90;99.90;;;;;;4356889;28;657299;-76
2023/11/06 07:39:45;;;;;;;1.80;0.60;;;9.90;99.90;;;;;;4374728;28;658698;-77
2023/11/06 07:42:34;;;;;;;1.63;0.40;;;9.90;99.90;;;;;;4375841;28;657301;-76
2023/11/06 07:45:21;;;;;;;2.93;1.23;;;9.90;99.90;;;;;;4366826;28;658180;-76
2023/11/06 07:48:08;;;;;;;4.00;1.13;;;9.90;99.90;;;;;;4350917;28;658435;-76
2023/11/06 07:50:56;;;;;;;3.47;0.90;;;10.00;99.90;;;;;;4372728;28;658641;-77
2023/11/06 07:53:44;;;;;;;1.77;0.70;;;9.90;99.90;;;;;;4353653;28;658868;-76
2023/11/06 07:56:31;;;;;;;2.60;0.90;;;9.90;99.90;;;;;;4368827;28;657856;-77
2023/11/06 07:59:19;;;;;;;0.57;0.37;;;9.90;99.90;;;;;;4354557;28;657339;-77
2023/11/06 08:02:08;;;;;;;3.17;1.10;;;9.90;99.90;;;;;;4373414;28;657517;-77
2023/11/06 08:04:56;;;;;;;5.23;1.17;;;9.90;99.90;;;;;;4350671;28;658294;-76
2023/11/06 08:07:43;;;;;;;5.70;1.30;;;10.00;99.90;;;;;;4351497;28;657755;-76
2023/11/06 08:10:33;;;;;;;1.67;0.70;;;10.00;99.90;;;;;;4374391;28;659162;-75
2023/11/06 08:13:20;;;;;;;2.77;0.83;;;10.00;99.90;;;;;;4345307;28;658964;-75
2023/11/06 08:16:09;;;;;;;1.80;0.70;;;10.10;99.90;;;;;;4365938;28;658980;-76
2023/11/06 08:18:57;;;;;;;3.07;1.40;;;10.10;99.90;;;;;;4378752;28;659552;-76
2023/11/06 08:21:44;;;;;;;3.33;0.77;;;10.20;99.90;;;;;;4351394;28;659158;-76
2023/11/06 08:24:31;;;;;;;4.87;1.20;;;10.30;99.90;;;;;;4374429;28;658367;-76
2023/11/06 08:27:18;;;;;;;2.03;0.50;;;10.30;99.90;;;;;;4352856;28;658741;-76
2023/11/06 08:30:09;;;;;;;2.40;0.97;;;10.30;99.90;;;;;;4370898;28;659837;-76
2023/11/06 08:32:57;;;;;;;3.57;0.70;;;10.30;99.90;;;;;;4354503;28;659359;-75
2023/11/06 08:35:45;;;;;;;3.20;0.90;;;10.30;99.90;;;;;;4356511;28;659275;-76
2023/11/06 08:38:32;;;;;;;0.70;0.50;;;10.30;99.90;;;;;;4358259;28;658538;-73
2023/11/06 08:41:20;;;;;;;4.60;1.20;;;10.40;99.90;;;;;;4371131;28;659489;-77
2023/11/06 08:44:07;;;;;;;4.68;1.10;;;10.50;99.90;;;;;;4346904;28;658948;-77
2023/11/06 08:46:55;;;;;;;5.17;1.10;;;10.40;99.90;;;;;;4370796;28;659265;-76
2023/11/06 08:49:44;;;;;;;2.90;1.00;;;10.50;99.90;;;;;;4365332;28;658502;-75
2023/11/06 08:52:31;;;;;;;2.83;0.90;;;10.60;99.90;;;;;;4370913;28;658631;-77
2023/11/06 08:55:19;;;;;;;2.03;0.70;;;10.60;99.90;;;;;;4351918;28;658306;-76
2023/11/06 08:58:09;;;;;;;2.30;0.80;;;10.70;99.90;;;;;;4360390;28;658717;-74
2023/11/06 09:01:00;;;;;;;0.33;0.33;;;10.80;99.90;;;;;;4342490;28;658631;-75
2023/11/06 09:03:48;;;;;;;2.63;0.93;;;10.90;99.90;;;;;;4328155;28;660046;-75
2023/11/06 09:06:40;;;;;;;0.80;0.47;;;11.10;99.90;;;;;;4366417;28;659391;-76
2023/11/06 09:09:27;;;;;;;1.90;0.53;;;11.20;99.90;;;;;;4346513;28;659664;-77
2023/11/06 09:12:14;;;;;;;3.50;0.53;;;11.00;99.90;;;;;;4350387;28;658380;-76
2023/11/06 09:15:01;;;;;;;2.27;0.80;;;11.10;99.90;;;;;;4370132;28;658705;-77
2023/11/06 09:17:48;;;;;;;2.30;1.07;;;11.00;99.90;;;;;;4345281;28;658647;-76
2023/11/06 09:20:35;;;;;;;2.60;0.70;;;11.10;99.90;;;;;;4376557;28;659569;-77
2023/11/06 09:23:24;;;;;;;5.17;0.63;;;11.20;99.90;;;;;;4353177;28;658732;-75
2023/11/06 09:26:11;;;;;;;3.47;0.60;;;11.30;99.90;;;;;;4375829;28;658454;-73
2023/11/06 09:29:00;;;;;;;1.70;0.70;;;11.30;99.90;;;;;;4346202;28;658976;-76
2023/11/06 09:31:48;;;;;;;4.40;0.60;;;11.30;99.90;;;;;;4354047;28;658845;-75
2023/11/06 09:34:36;;;;;;;1.50;0.50;;;11.40;99.90;;;;;;4375072;28;659623;-76
2023/11/06 09:37:24;;;;;;;1.43;0.40;;;11.30;99.90;;;;;;4347398;28;659067;-76
2023/11/06 09:40:20;;;;;;;6.93;1.00;;;11.20;99.90;;;;;;4368653;28;658197;-76
2023/11/06 09:43:08;;;;;;;0.80;0.30;;;11.30;99.90;;;;;;4347967;28;659050;-77
2023/11/06 09:45:55;;;;;;;5.03;0.60;;;11.40;99.90;;;;;;4371497;28;658308;-76
2023/11/06 09:48:42;;;;;;;5.80;1.07;;;11.30;99.90;;;;;;4357446;28;658645;-77
2023/11/06 09:51:31;;;;;;;2.87;0.97;;;11.30;99.90;;;;;;4376866;28;659897;-77
2023/11/06 09:54:19;;;;;;;0.40;0.40;;;11.40;99.90;;;;;;4351328;28;658665;-75
2023/11/06 09:57:09;;;;;;;1.30;0.63;;;11.60;99.90;;;;;;4367216;28;659215;-74
2023/11/06 09:59:56;;;;;;;3.03;0.60;;;11.50;99.90;;;;;;4347768;28;658690;-76
2023/11/06 10:02:44;;;;;;;2.33;1.00;;;11.50;99.90;;;;;;4351788;28;658999;-78
2023/11/06 10:05:31;;;;;;;3.77;1.07;;;11.80;99.90;;;;;;4372680;28;658496;-78
2023/11/06 10:08:28;;;;;;;1.13;0.53;;;12.30;99.90;;;;;;4349345;28;658764;-74
2023/11/06 10:11:22;;;;;;;1.67;0.77;;;12.30;99.90;;;;;;4346738;28;659372;-76
2023/11/06 10:14:11;;;;;;;1.77;0.90;;;12.50;99.90;;;;;;4318637;28;659391;-77
2023/11/06 10:17:03;;;;;;;1.10;0.47;;;12.30;99.90;;;;;;4347326;28;658612;-77
2023/11/06 10:20:00;;;;;;;4.20;0.80;;;12.10;99.90;;;;;;4351788;28;659051;-77
2023/11/06 10:22:55;;;;;;;2.20;0.93;;;12.20;99.90;;;;;;4369276;28;659441;-77
2023/11/06 10:25:42;;;;;;;1.70;0.67;;;12.50;99.90;;;;;;4339838;28;658666;-76
2023/11/06 10:28:30;;;;;;;3.77;0.70;;;12.30;99.90;;;;;;4362198;28;659550;-76
2023/11/06 10:31:19;;;;;;;1.63;0.70;;;11.90;99.90;;;;;;4357979;28;659734;-75
2023/11/06 10:34:26;;;;;;;0.67;0.50;;;11.70;99.90;;;;;;4369691;28;658618;-76
2023/11/06 10:37:14;;;;;;;1.17;0.50;;;12.00;99.90;;;;;;4339702;28;659154;-76
2023/11/06 10:40:01;;;;;;;3.37;0.80;;;12.10;99.90;;;;;;4375484;28;658389;-78
2023/11/06 10:42:49;;;;;;;1.10;0.43;;;11.80;99.90;;;;;;4357253;28;658445;-77
2023/11/06 10:45:37;;;;;;;0.97;0.50;;;11.80;99.90;;;;;;4379890;28;658458;-76
2023/11/06 10:48:33;;;;;;;2.70;0.77;;;11.80;99.90;;;;;;4355714;28;659063;-77
2023/11/06 10:51:20;;;;;;;2.78;0.60;;;11.70;99.90;;;;;;4339206;28;659436;-76
2023/11/06 10:54:07;;;;;;;3.87;1.07;;;11.80;99.90;;;;;;4363997;28;658999;-76
2023/11/06 10:56:57;;;;;;;1.67;0.70;;;11.80;99.90;;;;;;4378887;28;659670;-77
2023/11/06 10:59:44;;;;;;;1.40;0.50;;;11.70;99.90;;;;;;4360668;28;658771;-75
2023/11/06 11:02:43;;;;;;;1.43;0.70;;;11.70;99.90;;;;;;4381784;28;659140;-76
2023/11/06 11:05:33;;;;;;;0.20;0.20;;;11.70;99.90;;;;;;4344746;28;658526;-77
2023/11/06 11:08:21;;;;;;;0.80;0.50;;;11.60;99.90;;;;;;4338884;28;659133;-75
2023/11/06 11:11:09;;;;;;;4.23;0.70;;;11.60;99.90;;;;;;4355542;28;659000;-77
2023/11/06 11:13:56;;;;;;;1.17;0.27;;;11.80;99.90;;;;;;4372799;28;658814;-76
2023/11/06 11:16:45;;;;;;;2.23;1.00;;;11.80;99.90;;;;;;4355052;28;658618;-78
2023/11/06 11:19:33;;;;;;;2.37;0.70;;;11.90;99.90;;;;;;4364935;28;659005;-76
2023/11/06 11:22:23;;;;;;;2.17;0.90;;;12.00;99.90;;;;;;4376579;28;659475;-78
2023/11/06 11:25:11;;;;;;;4.00;0.93;;;12.10;99.90;;;;;;4358691;28;658864;-76
2023/11/06 11:28:13;;;;;;;1.53;0.60;;;12.10;99.90;;;;;;4340160;28;659041;-75
2023/11/06 11:31:34;;;;;;;3.50;0.53;;;11.90;99.90;;;;;;4350639;28;659045;-75
2023/11/06 11:34:26;;;;;;;2.13;1.00;;;11.90;99.90;;;;;;4343510;28;658975;-76
2023/11/06 11:37:35;;;;;;;1.47;0.60;;;12.10;99.90;;;;;;4347922;28;658691;-76
2023/11/06 11:40:22;;;;;;;4.50;1.03;;;12.20;99.90;;;;;;4346350;28;658841;-75
2023/11/06 11:43:41;;;;;;;3.30;1.03;;;12.30;99.90;;;;;;4371454;28;659578;-75
2023/11/06 11:46:36;;;;;;;1.70;0.40;;;12.80;99.90;;;;;;4349600;28;658799;-77
2023/11/06 11:49:44;;;;;;;1.73;0.52;;;13.10;99.90;;;;;;4320787;28;659454;-78
2023/11/06 11:52:44;;;;;;;1.23;0.50;;;13.60;99.90;;;;;;4344804;28;658552;-76
2023/11/06 11:55:34;;;;;;;1.40;0.67;;;14.20;99.90;;;;;;4342835;28;658498;-76
2023/11/06 11:58:21;;;;;;;3.23;0.70;;;14.80;99.90;;;;;;4342342;28;658753;-75
2023/11/06 12:01:09;;;;;;;0.73;0.40;;;14.30;99.90;;;;;;4338995;28;658548;-75
2023/11/06 12:03:57;;;;;;;2.23;0.60;;;14.30;97.50;;;;;;4366033;28;658460;-78
2023/11/06 12:06:44;;;;;;;0.73;0.40;;;13.20;99.90;;;;;;4345354;28;658915;-77
2023/11/06 12:09:48;;;;;;;2.73;0.67;;;12.70;99.90;;;;;;4368374;28;658530;-77
2023/11/06 12:12:35;;;;;;;2.33;0.80;;;12.20;99.90;;;;;;4347192;28;659004;-75
2023/11/06 12:15:30;;;;;;;2.20;0.60;;;12.10;99.90;;;;;;4354360;28;658934;-77
2023/11/06 12:18:21;;;;;;;1.60;0.43;;;11.90;99.90;;;;;;4356024;28;658911;-76
2023/11/06 12:21:08;;;;;;;2.90;0.57;;;11.80;99.90;;;;;;4354919;28;658879;-77
2023/11/06 12:23:56;;;;;;;5.77;1.20;;;11.90;99.90;;;;;;4372616;28;658604;-76
2023/11/06 12:26:55;;;;;;;1.80;0.70;;;11.80;99.90;;;;;;4339177;28;658759;-75
2023/11/06 12:29:43;;;;;;;3.77;1.20;;;12.30;99.90;;;;;;4326825;28;658963;-77
2023/11/06 12:32:30;;;;;;;1.17;0.77;;;13.20;99.90;;;;;;4375041;28;658986;-76
2023/11/06 12:35:19;;;;;;;3.33;0.80;;;13.40;99.90;;;;;;4344125;28;659338;-76
2023/11/06 12:38:06;;;;;;;4.03;1.17;;;13.40;99.90;;;;;;4365186;28;658501;-77
2023/11/06 12:40:53;;;;;;;1.60;0.83;;;14.10;99.90;;;;;;4347558;28;658745;-76
2023/11/06 12:43:42;;;;;;;8.13;1.80;;;13.90;99.90;;;;;;4369056;28;659479;-76
2023/11/06 12:46:42;;;;;;;4.10;1.03;;;14.20;99.90;;;;;;4346645;28;659457;-76
2023/11/06 12:49:30;;;;;;;7.07;1.30;;;13.20;99.90;;;;;;4342550;28;658445;-76
2023/11/06 12:52:21;;;;;;;2.40;0.90;;;12.70;99.90;;;;;;4365645;28;658872;-76
2023/11/06 12:55:10;;;;;;;1.90;0.50;;;12.20;99.90;;;;;;4343141;28;658864;-75
2023/11/06 12:58:09;;;;;;;0.63;0.50;;;12.30;99.90;;;;;;4366749;28;658152;-76
2023/11/06 13:00:59;;;;;;;1.07;0.60;;;12.30;99.90;;;;;;4347937;28;659298;-75
2023/11/06 13:03:47;;;;;;;5.97;1.43;;;12.20;99.90;;;;;;4342388;28;658930;-76
2023/11/06 13:06:35;;;;;;;2.40;1.00;;;12.20;99.90;;;;;;4346441;28;659180;-77
2023/11/06 13:09:24;;;;;;;4.07;0.97;;;12.20;99.90;;;;;;4363359;28;659026;-75
2023/11/06 13:12:11;;;;;;;3.57;1.10;;;12.10;99.90;;;;;;4362858;28;658787;-77
2023/11/06 13:15:00;;;;;;;1.53;0.77;;;12.20;99.90;;;;;;4342902;28;658656;-76
2023/11/06 13:17:49;;;;;;;5.63;1.03;;;12.10;99.90;;;;;;4361626;28;658851;-76
2023/11/06 13:20:44;;;;;;;8.07;0.90;;;11.90;99.90;;;;;;4362937;28;658864;-74
2023/11/06 13:23:31;;;;;;;2.20;0.60;;;11.90;99.90;;;;;;4337619;28;658653;-76
2023/11/06 13:26:19;;;;;;;2.87;1.00;;;11.90;99.90;;;;;;4346702;28;658457;-76
2023/11/06 13:29:07;;;;;;;2.43;1.10;;;11.80;99.90;;;;;;4368137;28;658771;-76
2023/11/06 13:31:54;;;;;;;3.03;1.10;;;11.70;99.90;;;;;;4340580;28;659630;-76
2023/11/06 13:34:44;;;;;;;3.70;0.93;;;11.60;99.90;;;;;;4365692;28;658557;-76
2023/11/06 13:37:31;;;;;;;3.20;1.33;;;11.60;99.90;;;;;;4348126;28;658741;-76
2023/11/06 13:40:22;;;;;;;7.07;1.77;;;11.50;99.90;;;;;;4343342;28;659075;-76
2023/11/06 13:43:09;;;;;;;5.50;1.50;;;11.50;99.90;;;;;;4347477;28;658848;-75
2023/11/06 13:45:58;;;;;;;3.50;1.33;;;11.50;99.90;;;;;;4370600;28;659332;-76
2023/11/06 13:48:47;;;;;;;7.27;1.40;;;11.60;99.90;;;;;;4345913;28;659157;-76
2023/11/06 13:51:40;;;;;;;6.57;1.33;;;11.50;99.90;;;;;;4352317;28;659577;-75
2023/11/06 13:54:33;;;;;;;4.43;1.27;;;11.60;99.90;;;;;;4327793;28;659180;-76
2023/11/06 13:57:23;;;;;;;8.67;0.97;;;11.50;99.90;;;;;;4344616;28;658808;-76
2023/11/06 14:00:31;;;;;;;3.20;1.00;;;11.60;99.90;;;;;;4348502;28;659502;-76
2023/11/06 14:03:19;;;;;;;2.90;1.30;;;11.50;99.90;;;;;;4326711;28;659281;-75
2023/11/06 14:06:16;;;;;;;7.60;1.33;;;11.50;99.90;;;;;;4368379;28;658450;-76
2023/11/06 14:09:26;;;;;;;2.47;0.70;;;11.50;99.90;;;;;;4333164;28;658481;-76
2023/11/06 14:12:13;;;;;;;3.43;1.63;;;11.50;99.90;;;;;;4328134;28;659122;-76
2023/11/06 14:15:00;;;;;;;4.83;2.10;;;11.40;99.90;;;;;;4372186;28;659098;-76
2023/11/06 14:17:47;;;;;;;7.07;2.10;;;11.40;99.90;;;;;;4356106;28;658884;-76
2023/11/06 14:20:35;;;;;;;4.37;2.23;;;11.40;99.90;;;;;;4374286;28;659726;-76
2023/11/06 14:23:23;;;;;;;5.23;1.63;;;11.40;99.90;;;;;;4345190;28;658555;-74
2023/11/06 14:26:13;;;;;;;8.80;2.03;;;11.40;99.90;;;;;;4370838;28;658879;-76
2023/11/06 14:29:00;;;;;;;6.87;2.00;;;11.40;99.90;;;;;;4352962;28;659654;-76
2023/11/06 14:31:49;;;;;;;4.93;1.67;;;11.40;99.90;;;;;;4352464;28;660118;-76